createdAt,value
2019-05-20T00:01:14.287Z,15.00
2019-05-20T00:03:40.835Z,15.00
2019-05-20T00:06:07.469Z,15.00
2019-05-20T00:08:34.305Z,15.00
2019-05-20T00:11:01.112Z,15.00
2019-05-20T00:13:27.931Z,15.00
2019-05-20T00:15:54.522Z,15.00
2019-05-20T00:18:20.957Z,15.00
2019-05-20T00:20:47.702Z,15.00
2019-05-20T00:23:14.150Z,15.00
2019-05-20T00:25:40.636Z,14.90
2019-05-20T00:28:07.235Z,14.90
2019-05-20T00:30:33.922Z,14.90
2019-05-20T00:33:00.655Z,14.90
2019-05-20T00:35:27.142Z,14.90
2019-05-20T00:37:53.804Z,14.90
2019-05-20T00:40:20.253Z,14.90
2019-05-20T00:42:46.698Z,14.90
2019-05-20T00:45:15.179Z,14.90
2019-05-20T00:47:41.541Z,14.90
2019-05-20T00:50:08.458Z,14.90
2019-05-20T00:52:36.091Z,14.80
2019-05-20T00:55:07.009Z,14.80
2019-05-20T00:57:33.420Z,14.90
2019-05-20T00:59:59.874Z,14.90
2019-05-20T01:02:26.354Z,14.80
2019-05-20T01:04:52.934Z,14.80
2019-05-20T01:07:19.338Z,14.80
2019-05-20T01:09:45.845Z,14.90
2019-05-20T01:12:12.499Z,14.80
2019-05-20T01:14:39.212Z,14.80
2019-05-20T01:17:05.657Z,14.80
2019-05-20T01:19:32.251Z,14.80
2019-05-20T01:21:58.744Z,14.80
2019-05-20T01:24:25.187Z,14.80
2019-05-20T01:26:51.796Z,14.80
2019-05-20T01:29:18.364Z,14.80
2019-05-20T01:31:44.840Z,14.80
2019-05-20T01:34:11.997Z,14.80
2019-05-20T01:36:38.554Z,14.70
2019-05-20T01:39:05.721Z,14.80
2019-05-20T01:41:32.247Z,14.70
2019-05-20T01:43:58.810Z,14.70
2019-05-20T01:46:25.227Z,14.70
2019-05-20T01:48:51.794Z,14.80
2019-05-20T01:51:18.196Z,14.80
2019-05-20T01:53:44.870Z,14.80
2019-05-20T01:56:11.471Z,14.80
2019-05-20T01:58:39.679Z,14.80
2019-05-20T02:01:06.415Z,14.80
2019-05-20T02:03:33.109Z,14.80
2019-05-20T02:05:59.914Z,14.70
2019-05-20T02:08:26.418Z,14.70
2019-05-20T02:10:56.316Z,14.70
2019-05-20T02:13:21.313Z,14.70
2019-05-20T02:15:49.595Z,14.70
2019-05-20T02:18:15.955Z,14.80
2019-05-20T02:20:42.561Z,14.80
2019-05-20T02:23:15.484Z,14.70
2019-05-20T02:25:47.072Z,14.70
2019-05-20T02:28:13.660Z,14.70
2019-05-20T02:30:40.303Z,14.70
2019-05-20T02:33:08.076Z,14.70
2019-05-20T02:35:34.537Z,14.70
2019-05-20T02:38:01.072Z,14.70
2019-05-20T02:40:27.720Z,14.70
2019-05-20T02:42:54.175Z,14.70
2019-05-20T02:45:22.001Z,14.70
2019-05-20T02:47:48.608Z,14.70
2019-05-20T02:50:15.281Z,14.70
2019-05-20T02:52:41.912Z,14.70
2019-05-20T02:55:09.117Z,14.70
2019-05-20T02:57:35.520Z,14.70
2019-05-20T03:00:06.545Z,14.60
2019-05-20T03:02:33.081Z,14.70
2019-05-20T03:04:59.640Z,14.60
2019-05-20T03:07:26.145Z,14.60
2019-05-20T03:09:52.488Z,14.60
2019-05-20T03:12:18.939Z,14.60
2019-05-20T03:14:45.518Z,14.60
2019-05-20T03:17:12.150Z,14.60
2019-05-20T03:19:38.626Z,14.60
2019-05-20T03:22:05.322Z,14.60
2019-05-20T03:24:31.938Z,14.60
2019-05-20T03:26:58.479Z,14.60
2019-05-20T03:29:25.210Z,14.60
2019-05-20T03:31:51.862Z,14.60
2019-05-20T03:34:44.280Z,14.60
2019-05-20T03:36:46.780Z,14.60
2019-05-20T03:39:13.312Z,14.60
2019-05-20T03:41:39.931Z,14.60
2019-05-20T03:44:06.419Z,14.60
2019-05-20T03:46:32.976Z,14.60
2019-05-20T03:48:59.728Z,14.60
2019-05-20T03:51:27.467Z,14.60
2019-05-20T03:53:54.007Z,14.60
2019-05-20T03:56:20.424Z,14.50
2019-05-20T03:58:47.123Z,14.50
2019-05-20T04:01:13.622Z,14.60
2019-05-20T04:03:40.167Z,14.50
2019-05-20T04:06:07.077Z,14.60
2019-05-20T04:08:33.734Z,14.60
2019-05-20T04:11:00.400Z,14.60
2019-05-20T04:13:27.017Z,14.60
2019-05-20T04:15:53.628Z,14.50
2019-05-20T04:18:39.967Z,14.50
2019-05-20T04:21:06.376Z,14.50
2019-05-20T04:23:32.807Z,14.60
2019-05-20T04:26:01.032Z,14.60
2019-05-20T04:28:27.463Z,14.60
2019-05-20T04:30:54.020Z,14.60
2019-05-20T04:33:21.757Z,14.60
2019-05-20T04:35:49.741Z,14.70
2019-05-20T04:38:16.591Z,14.60
2019-05-20T04:40:43.106Z,14.70
2019-05-20T04:43:09.656Z,14.60
2019-05-20T04:45:36.303Z,14.70
2019-05-20T04:48:16.303Z,14.70
2019-05-20T04:50:42.917Z,14.70
2019-05-20T04:53:09.424Z,14.70
2019-05-20T04:55:35.870Z,14.70
2019-05-20T04:58:02.421Z,14.70
2019-05-20T05:00:52.144Z,14.80
2019-05-20T05:03:18.645Z,14.80
2019-05-20T05:05:45.460Z,14.80
2019-05-20T05:08:11.839Z,14.80
2019-05-20T05:10:38.267Z,14.80
2019-05-20T05:13:04.946Z,14.80
2019-05-20T05:15:31.496Z,14.80
2019-05-20T05:17:58.187Z,14.80
2019-05-20T05:20:24.885Z,14.80
2019-05-20T05:23:11.298Z,14.90
2019-05-20T05:25:39.216Z,14.80
2019-05-20T05:28:06.970Z,14.90
2019-05-20T05:30:34.150Z,14.90
2019-05-20T05:33:01.026Z,15.00
2019-05-20T05:35:27.950Z,15.00
2019-05-20T05:37:58.194Z,15.10
2019-05-20T05:40:30.127Z,15.10
2019-05-20T05:43:00.906Z,15.10
2019-05-20T05:45:32.430Z,15.10
2019-05-20T05:48:04.250Z,15.20
2019-05-20T05:50:31.120Z,15.20
2019-05-20T05:52:57.764Z,15.10
2019-05-20T05:55:25.131Z,15.10
2019-05-20T05:57:51.929Z,15.10
2019-05-20T06:00:19.598Z,15.20
2019-05-20T06:02:46.277Z,15.20
2019-05-20T06:05:13.279Z,15.20
2019-05-20T06:07:39.821Z,15.20
2019-05-20T06:10:06.461Z,15.20
2019-05-20T06:12:32.988Z,15.20
2019-05-20T06:14:59.762Z,15.20
2019-05-20T06:17:26.077Z,15.20
2019-05-20T06:19:53.797Z,15.20
2019-05-20T06:22:20.307Z,15.10
2019-05-20T06:24:46.699Z,15.00
2019-05-20T06:27:13.367Z,14.90
2019-05-20T06:29:40.046Z,14.80
2019-05-20T06:32:06.696Z,14.70
2019-05-20T06:34:33.196Z,14.80
2019-05-20T06:37:04.559Z,14.70
2019-05-20T06:39:31.745Z,14.80
2019-05-20T06:41:58.287Z,14.90
2019-05-20T06:44:25.343Z,14.80
2019-05-20T06:46:51.853Z,14.90
2019-05-20T06:49:18.571Z,15.00
2019-05-20T06:51:45.077Z,15.00
2019-05-20T06:54:11.665Z,15.10
2019-05-20T06:56:38.329Z,15.10
2019-05-20T06:59:04.741Z,15.10
2019-05-20T07:01:31.399Z,15.10
2019-05-20T07:03:58.006Z,15.00
2019-05-20T07:06:24.553Z,15.10
2019-05-20T07:08:52.854Z,15.10
2019-05-20T07:11:19.647Z,15.10
2019-05-20T07:13:46.225Z,15.00
2019-05-20T07:16:13.268Z,15.00
2019-05-20T07:18:39.860Z,15.00
2019-05-20T07:21:06.544Z,15.10
2019-05-20T07:23:33.353Z,15.10
2019-05-20T07:26:00.063Z,15.10
2019-05-20T07:28:27.077Z,15.20
2019-05-20T07:30:53.781Z,15.20
2019-05-20T07:33:20.438Z,15.20
2019-05-20T07:35:47.030Z,15.20
2019-05-20T07:38:13.558Z,15.30
2019-05-20T07:40:40.265Z,15.30
2019-05-20T07:43:08.041Z,15.20
2019-05-20T07:45:35.625Z,15.20
2019-05-20T07:48:05.892Z,15.30
2019-05-20T07:50:35.503Z,15.30
2019-05-20T07:53:03.312Z,15.30
2019-05-20T07:55:33.724Z,15.30
2019-05-20T07:58:03.950Z,15.30
2019-05-20T08:00:30.701Z,15.30
2019-05-20T08:02:57.364Z,15.30
2019-05-20T08:05:23.864Z,15.30
2019-05-20T08:07:52.710Z,15.30
2019-05-20T08:10:19.229Z,15.30
2019-05-20T08:12:45.745Z,15.20
2019-05-20T08:15:12.693Z,15.20
2019-05-20T08:17:52.158Z,15.30
2019-05-20T08:20:18.802Z,15.20
2019-05-20T08:22:45.240Z,15.20
2019-05-20T08:25:12.471Z,15.20
2019-05-20T08:27:39.034Z,15.20
2019-05-20T08:30:06.862Z,15.30
2019-05-20T08:32:34.530Z,15.30
2019-05-20T08:35:01.353Z,15.30
2019-05-20T08:37:44.342Z,15.30
2019-05-20T08:39:57.796Z,15.40
2019-05-20T08:42:24.315Z,15.50
2019-05-20T08:44:51.006Z,15.50
2019-05-20T08:47:17.632Z,15.60
2019-05-20T08:49:44.305Z,15.70
2019-05-20T08:52:11.051Z,15.80
2019-05-20T08:54:40.274Z,15.90
2019-05-20T08:57:06.274Z,15.90
2019-05-20T08:59:32.880Z,15.90
2019-05-20T09:01:59.638Z,15.90
2019-05-20T09:04:26.256Z,15.90
2019-05-20T09:06:52.687Z,15.90
2019-05-20T09:09:19.316Z,15.90
2019-05-20T09:11:47.940Z,15.90
2019-05-20T09:14:14.325Z,15.80
2019-05-20T09:16:41.046Z,15.80
2019-05-20T09:19:07.661Z,15.80
2019-05-20T09:21:34.249Z,15.60
2019-05-20T09:24:00.779Z,15.60
2019-05-20T09:26:27.507Z,15.50
2019-05-20T09:28:54.050Z,15.50
2019-05-20T09:31:20.700Z,15.60
2019-05-20T09:33:47.865Z,15.60
2019-05-20T09:36:14.765Z,15.60
2019-05-20T09:38:41.331Z,15.60
2019-05-20T09:41:08.815Z,15.70
2019-05-20T09:43:35.578Z,15.60
2019-05-20T09:46:07.828Z,15.70
2019-05-20T09:48:30.801Z,15.60
2019-05-20T09:50:57.459Z,15.60
2019-05-20T09:53:24.384Z,15.60
2019-05-20T09:55:51.004Z,15.70
2019-05-20T09:58:17.698Z,15.70
2019-05-20T10:00:45.201Z,15.70
2019-05-20T10:03:11.839Z,15.80
2019-05-20T10:05:38.544Z,15.90
2019-05-20T10:08:05.359Z,15.90
2019-05-20T10:10:33.017Z,15.90
2019-05-20T10:12:59.565Z,15.90
2019-05-20T10:15:26.339Z,15.90
2019-05-20T10:17:52.838Z,15.90
2019-05-20T10:20:19.613Z,15.90
2019-05-20T10:22:46.322Z,15.90
2019-05-20T10:25:13.057Z,15.90
2019-05-20T10:27:39.534Z,15.90
2019-05-20T10:30:09.824Z,15.80
2019-05-20T10:32:36.542Z,15.70
2019-05-20T10:35:04.846Z,15.70
2019-05-20T10:37:31.504Z,15.60
2019-05-20T10:39:58.017Z,15.60
2019-05-20T10:42:38.334Z,15.60
2019-05-20T10:45:05.384Z,15.60
2019-05-20T10:47:32.070Z,15.60
2019-05-20T10:49:58.730Z,15.60
2019-05-20T10:52:25.207Z,15.50
2019-05-20T10:54:51.846Z,15.50
2019-05-20T10:57:18.566Z,15.50
2019-05-20T10:59:45.161Z,15.40
2019-05-20T11:02:12.064Z,15.40
2019-05-20T11:04:38.771Z,15.40
2019-05-20T11:07:05.518Z,15.50
2019-05-20T11:09:32.192Z,15.60
2019-05-20T11:11:58.925Z,15.60
2019-05-20T11:14:25.592Z,15.50
2019-05-20T11:16:52.239Z,15.50
2019-05-20T11:19:18.804Z,15.60
2019-05-20T11:21:45.430Z,15.60
2019-05-20T11:24:12.009Z,15.60
2019-05-20T11:26:38.533Z,15.70
2019-05-20T11:29:05.121Z,15.60
2019-05-20T11:31:31.651Z,15.70
2019-05-20T11:33:58.270Z,15.80
2019-05-20T11:36:25.023Z,15.80
2019-05-20T11:38:54.800Z,15.80
2019-05-20T11:41:51.009Z,15.90
2019-05-20T11:43:50.629Z,16.00
2019-05-20T11:46:17.172Z,16.00
2019-05-20T11:48:44.292Z,16.00
2019-05-20T11:51:10.917Z,16.00
2019-05-20T11:53:37.551Z,16.00
2019-05-20T11:56:17.817Z,16.10
2019-05-20T11:58:51.823Z,16.10
2019-05-20T12:01:18.467Z,16.10
2019-05-20T12:03:51.734Z,16.20
2019-05-20T12:06:18.252Z,16.20
2019-05-20T12:08:44.820Z,16.20
2019-05-20T12:11:25.787Z,16.10
2019-05-20T12:13:52.507Z,16.10
2019-05-20T12:16:19.164Z,16.00
2019-05-20T12:18:45.713Z,16.10
2019-05-20T12:21:12.275Z,16.10
2019-05-20T12:23:39.274Z,16.20
2019-05-20T12:26:05.691Z,16.10
2019-05-20T12:28:33.587Z,16.10
2019-05-20T12:31:00.053Z,16.10
2019-05-20T12:33:26.561Z,16.10
2019-05-20T12:35:53.258Z,16.10
2019-05-20T12:38:19.806Z,16.10
2019-05-20T12:40:46.355Z,16.10
2019-05-20T12:43:13.178Z,16.20
2019-05-20T12:45:39.705Z,16.30
2019-05-20T12:48:06.427Z,16.30
2019-05-20T12:50:32.928Z,16.40
2019-05-20T12:52:59.302Z,16.30
2019-05-20T12:55:25.853Z,16.40
2019-05-20T12:57:52.469Z,16.50
2019-05-20T13:00:30.193Z,16.70
2019-05-20T13:02:56.761Z,16.70
2019-05-20T13:05:23.453Z,16.70
2019-05-20T13:07:50.029Z,16.80
2019-05-20T13:10:36.426Z,16.80
2019-05-20T13:13:03.073Z,16.80
2019-05-20T13:15:29.698Z,16.80
2019-05-20T13:17:56.247Z,16.90
2019-05-20T13:20:22.636Z,17.00
2019-05-20T13:22:49.520Z,17.10
2019-05-20T13:25:16.432Z,17.00
2019-05-20T13:27:42.941Z,17.00
2019-05-20T13:30:10.392Z,17.10
2019-05-20T13:32:36.925Z,17.10
2019-05-20T13:35:05.910Z,17.10
2019-05-20T13:37:32.469Z,17.10
2019-05-20T13:40:02.981Z,17.10
2019-05-20T13:42:27.525Z,17.20
2019-05-20T13:44:54.118Z,17.30
2019-05-20T13:47:21.255Z,17.40
2019-05-20T13:49:47.725Z,17.50
2019-05-20T13:52:14.462Z,17.50
2019-05-20T13:54:41.089Z,17.60
2019-05-20T13:57:12.038Z,17.70
2019-05-20T13:59:36.033Z,17.80
2019-05-20T14:02:02.641Z,17.80
2019-05-20T14:04:29.084Z,17.90
2019-05-20T14:06:55.803Z,17.90
2019-05-20T14:09:22.273Z,18.00
2019-05-20T14:11:48.859Z,18.10
2019-05-20T14:14:15.614Z,18.20
2019-05-20T14:16:42.043Z,18.10
2019-05-20T14:19:08.760Z,18.10
2019-05-20T14:21:35.391Z,18.00
2019-05-20T14:24:01.930Z,18.00
2019-05-20T14:26:28.470Z,18.00
2019-05-20T14:28:54.931Z,18.00
2019-05-20T14:31:21.570Z,18.10
2019-05-20T14:33:47.988Z,18.00
2019-05-20T14:36:37.279Z,17.80
2019-05-20T14:38:43.979Z,17.80
2019-05-20T14:41:21.133Z,17.70
2019-05-20T14:43:51.925Z,17.50
2019-05-20T14:46:18.449Z,17.50
2019-05-20T14:48:46.007Z,17.50
2019-05-20T14:51:12.676Z,17.40
2019-05-20T14:53:39.254Z,17.20
2019-05-20T14:56:05.702Z,17.10
2019-05-20T14:58:32.344Z,17.20
2019-05-20T15:00:58.858Z,17.10
2019-05-20T15:03:25.530Z,17.10
2019-05-20T15:05:52.173Z,17.10
2019-05-20T15:08:18.620Z,17.10
2019-05-20T15:10:45.223Z,17.10
2019-05-20T15:13:11.869Z,17.20
2019-05-20T15:15:38.670Z,17.20
2019-05-20T15:18:05.124Z,17.10
2019-05-20T15:20:32.799Z,17.10
2019-05-20T15:22:59.503Z,17.10
2019-05-20T15:25:25.927Z,16.90
2019-05-20T15:27:53.522Z,16.90
2019-05-20T15:30:20.283Z,16.90
2019-05-20T15:32:50.125Z,16.90
2019-05-20T15:35:17.105Z,16.90
2019-05-20T15:37:43.680Z,16.80
2019-05-20T15:40:10.353Z,16.70
2019-05-20T15:42:37.001Z,16.70
2019-05-20T15:45:06.569Z,16.60
2019-05-20T15:47:33.327Z,16.60
2019-05-20T15:50:00.928Z,16.60
2019-05-20T15:52:27.508Z,16.60
2019-05-20T15:54:54.116Z,16.60
2019-05-20T15:57:20.667Z,16.50
2019-05-20T15:59:47.333Z,16.50
2019-05-20T16:02:14.338Z,16.50
2019-05-20T16:04:41.011Z,16.50
2019-05-20T16:07:07.662Z,16.40
2019-05-20T16:09:34.211Z,16.50
2019-05-20T16:12:00.811Z,16.50
2019-05-20T16:14:27.236Z,16.40
2019-05-20T16:16:53.829Z,16.40
2019-05-20T16:19:20.357Z,16.30
2019-05-20T16:21:47.917Z,16.30
2019-05-20T16:24:14.898Z,16.30
2019-05-20T16:26:41.512Z,16.30
2019-05-20T16:29:08.142Z,16.30
2019-05-20T16:31:34.860Z,16.30
2019-05-20T16:34:01.393Z,16.30
2019-05-20T16:36:27.899Z,16.30
2019-05-20T16:38:54.222Z,16.30
2019-05-20T16:41:22.126Z,16.40
2019-05-20T16:43:48.623Z,16.30
2019-05-20T16:46:15.313Z,16.30
2019-05-20T16:48:41.947Z,16.40
2019-05-20T16:51:08.698Z,16.30
2019-05-20T16:53:35.546Z,16.40
2019-05-20T16:56:02.661Z,16.30
2019-05-20T16:58:30.129Z,16.20
2019-05-20T17:00:56.790Z,16.30
2019-05-20T17:03:23.378Z,16.20
2019-05-20T17:05:49.884Z,16.20
2019-05-20T17:08:16.308Z,16.20
2019-05-20T17:10:43.149Z,16.20
2019-05-20T17:13:09.758Z,16.20
2019-05-20T17:15:36.346Z,16.20
2019-05-20T17:18:02.949Z,16.20
2019-05-20T17:20:29.699Z,16.20
2019-05-20T17:22:56.183Z,16.30
2019-05-20T17:25:23.481Z,16.30
2019-05-20T17:27:49.962Z,16.30
2019-05-20T17:30:16.655Z,16.30
2019-05-20T17:32:43.210Z,16.20
2019-05-20T17:35:10.827Z,16.10
2019-05-20T17:37:37.421Z,16.00
2019-05-20T17:40:07.925Z,16.00
2019-05-20T17:42:34.569Z,16.10
2019-05-20T17:45:01.125Z,16.10
2019-05-20T17:47:27.743Z,16.10
2019-05-20T17:49:54.342Z,16.20
2019-05-20T17:52:21.380Z,16.20
2019-05-20T17:54:48.291Z,16.30
2019-05-20T17:57:15.045Z,16.30
2019-05-20T18:00:03.098Z,16.30
2019-05-20T18:02:31.033Z,16.30
2019-05-20T18:04:57.733Z,16.30
2019-05-20T18:07:24.272Z,16.40
2019-05-20T18:09:52.986Z,16.20
2019-05-20T18:12:19.742Z,16.30
2019-05-20T18:14:48.173Z,16.20
2019-05-20T18:17:14.780Z,16.20
2019-05-20T18:19:41.332Z,16.20
2019-05-20T18:22:08.016Z,16.40
2019-05-20T18:24:34.726Z,16.30
2019-05-20T18:27:01.314Z,16.20
2019-05-20T18:29:27.952Z,16.20
2019-05-20T18:31:54.506Z,16.20
2019-05-20T18:34:21.197Z,16.20
2019-05-20T18:36:47.817Z,16.10
2019-05-20T18:39:14.528Z,16.10
2019-05-20T18:41:41.300Z,16.10
2019-05-20T18:44:07.734Z,16.10
2019-05-20T18:46:35.425Z,16.10
2019-05-20T18:49:02.034Z,16.10
2019-05-20T18:51:28.428Z,16.10
2019-05-20T18:53:56.152Z,16.00
2019-05-20T18:56:22.920Z,16.00
2019-05-20T18:58:49.415Z,16.00
2019-05-20T19:01:19.288Z,16.00
2019-05-20T19:03:44.488Z,16.00
2019-05-20T19:06:11.022Z,16.00
2019-05-20T19:08:37.764Z,16.00
2019-05-20T19:11:04.428Z,16.00
2019-05-20T19:13:31.098Z,16.00
2019-05-20T19:15:57.617Z,15.90
2019-05-20T19:18:24.247Z,15.90
2019-05-20T19:20:50.753Z,15.90
2019-05-20T19:23:17.087Z,15.90
2019-05-20T19:25:44.099Z,15.90
2019-05-20T19:28:10.883Z,15.90
2019-05-20T19:30:57.471Z,15.90
2019-05-20T19:33:24.294Z,15.90
2019-05-20T19:35:50.990Z,16.00
2019-05-20T19:38:17.728Z,15.90
2019-05-20T19:40:45.467Z,15.90
2019-05-20T19:43:12.096Z,15.80
2019-05-20T19:45:38.934Z,15.80
2019-05-20T19:48:05.623Z,15.80
2019-05-20T19:50:32.356Z,15.80
2019-05-20T19:52:59.384Z,15.80
2019-05-20T19:55:26.924Z,15.80
2019-05-20T19:57:53.555Z,15.80
2019-05-20T20:00:20.838Z,15.80
2019-05-20T20:02:47.397Z,15.70
2019-05-20T20:05:14.158Z,15.70
2019-05-20T20:07:40.764Z,15.70
2019-05-20T20:10:07.532Z,15.70
2019-05-20T20:12:33.990Z,15.70
2019-05-20T20:15:00.728Z,15.70
2019-05-20T20:17:27.116Z,15.70
2019-05-20T20:19:53.662Z,15.70
2019-05-20T20:22:20.364Z,15.70
2019-05-20T20:24:47.052Z,15.70
2019-05-20T20:27:13.587Z,15.70
2019-05-20T20:29:40.124Z,15.70
2019-05-20T20:32:06.627Z,15.70
2019-05-20T20:34:33.186Z,15.70
2019-05-20T20:36:59.776Z,15.60
2019-05-20T20:39:26.399Z,15.60
2019-05-20T20:41:53.069Z,15.70
2019-05-20T20:44:19.508Z,15.70
2019-05-20T20:46:46.754Z,15.70
2019-05-20T20:49:14.894Z,15.70
2019-05-20T20:51:41.924Z,15.70
2019-05-20T20:54:08.365Z,15.60
2019-05-20T20:56:35.156Z,15.70
2019-05-20T20:59:02.905Z,15.60
2019-05-20T21:01:30.700Z,15.70
2019-05-20T21:03:58.757Z,15.70
2019-05-20T21:06:25.536Z,15.70
2019-05-20T21:08:52.254Z,15.70
2019-05-20T21:11:18.790Z,15.70
2019-05-20T21:13:45.250Z,15.70
2019-05-20T21:16:12.838Z,15.70
2019-05-20T21:18:39.611Z,15.70
2019-05-20T21:21:06.228Z,15.70
2019-05-20T21:23:32.942Z,15.70
2019-05-20T21:25:59.445Z,15.70
2019-05-20T21:28:26.006Z,15.60
2019-05-20T21:30:52.586Z,15.60
2019-05-20T21:33:19.325Z,15.70
2019-05-20T21:35:45.933Z,15.70
2019-05-20T21:38:12.435Z,15.60
2019-05-20T21:40:39.034Z,15.70
2019-05-20T21:43:05.826Z,15.70
2019-05-20T21:45:32.534Z,15.70
2019-05-20T21:47:59.102Z,15.70
2019-05-20T21:50:25.655Z,15.70
2019-05-20T21:52:52.320Z,15.70
2019-05-20T21:55:18.906Z,15.70
2019-05-20T21:57:46.232Z,15.70
2019-05-20T22:00:14.833Z,15.70
2019-05-20T22:02:46.028Z,15.70
2019-05-20T22:05:32.446Z,15.70
2019-05-20T22:07:58.902Z,15.70
2019-05-20T22:10:25.454Z,15.70
2019-05-20T22:12:52.140Z,15.70
2019-05-20T22:15:18.597Z,15.70
2019-05-20T22:17:45.143Z,15.60
2019-05-20T22:20:11.906Z,15.60
2019-05-20T22:22:43.365Z,15.60
2019-05-20T22:25:11.956Z,15.70
2019-05-20T22:27:38.550Z,15.60
2019-05-20T22:30:06.900Z,15.60
2019-05-20T22:32:33.572Z,15.60
2019-05-20T22:35:00.158Z,15.60
2019-05-20T22:37:26.682Z,15.60
2019-05-20T22:39:53.126Z,15.60
2019-05-20T22:42:19.704Z,15.60
2019-05-20T22:44:46.333Z,15.60
2019-05-20T22:47:12.877Z,15.60
2019-05-20T22:49:39.901Z,15.60
2019-05-20T22:52:06.449Z,15.60
2019-05-20T22:54:33.103Z,15.60
2019-05-20T22:56:59.610Z,15.60
2019-05-20T22:59:26.186Z,15.60
2019-05-20T23:01:54.118Z,15.50
2019-05-20T23:04:20.625Z,15.60
2019-05-20T23:06:47.209Z,15.60
2019-05-20T23:09:14.975Z,15.60
2019-05-20T23:11:54.962Z,15.50
2019-05-20T23:14:21.479Z,15.50
2019-05-20T23:16:48.022Z,15.50
2019-05-20T23:19:14.503Z,15.60
2019-05-20T23:21:40.886Z,15.60
2019-05-20T23:24:07.336Z,15.50
2019-05-20T23:26:33.736Z,15.50
2019-05-20T23:29:01.541Z,15.50
2019-05-20T23:31:27.981Z,15.50
2019-05-20T23:34:10.348Z,15.50
2019-05-20T23:36:24.275Z,15.50
2019-05-20T23:38:50.835Z,15.50
2019-05-20T23:41:17.309Z,15.50
2019-05-20T23:43:43.724Z,15.50
2019-05-20T23:46:10.022Z,15.50
2019-05-20T23:48:36.489Z,15.50
2019-05-20T23:51:04.076Z,15.50
2019-05-20T23:53:30.595Z,15.50
2019-05-20T23:55:57.119Z,15.50
2019-05-20T23:58:23.791Z,15.50
